sensor_id;sensor_type;location;lat;lon;timestamp;pressure;altitude;pressure_sealevel;temperature;humidity
63901;BME280;50538;53.482;10.294;2023-11-22T00:00:24;102352.38;;;2.37;100.00
63901;BME280;50538;53.482;10.294;2023-11-22T00:10:24;102353.19;;;2.20;100.00
63901;BME280;50538;53.482;10.294;2023-11-22T00:20:24;102365.28;;;2.03;100.00
63901;BME280;50538;53.482;10.294;2023-11-22T00:30:25;102358.97;;;1.89;100.00
63901;BME280;50538;53.482;10.294;2023-11-22T00:40:25;102358.00;;;1.73;100.00
63901;BME280;50538;53.482;10.294;2023-11-22T00:50:25;102382.38;;;1.54;100.00
63901;BME280;50538;53.482;10.294;2023-11-22T01:00:26;102417.97;;;1.38;100.00
63901;BME280;50538;53.482;10.294;2023-11-22T01:10:26;102438.59;;;1.25;100.00
63901;BME280;50538;53.482;10.294;2023-11-22T01:20:27;102436.50;;;1.13;100.00
63901;BME280;50538;53.482;10.294;2023-11-22T01:30:27;102425.38;;;1.08;100.00
63901;BME280;50538;53.482;10.294;2023-11-22T01:40:28;102423.78;;;1.04;100.00
63901;BME280;50538;53.482;10.294;2023-11-22T01:50:29;102436.22;;;0.99;100.00
63901;BME280;50538;53.482;10.294;2023-11-22T02:00:40;102440.03;;;0.90;100.00
63901;BME280;50538;53.482;10.294;2023-11-22T02:10:42;102423.00;;;0.80;100.00
63901;BME280;50538;53.482;10.294;2023-11-22T02:20:44;102439.22;;;0.68;100.00
63901;BME280;50538;53.482;10.294;2023-11-22T02:30:45;102457.94;;;0.57;100.00
63901;BME280;50538;53.482;10.294;2023-11-22T02:40:46;102466.97;;;0.49;100.00
63901;BME280;50538;53.482;10.294;2023-11-22T02:50:47;102494.53;;;0.34;100.00
63901;BME280;50538;53.482;10.294;2023-11-22T03:00:49;102504.47;;;0.24;100.00
63901;BME280;50538;53.482;10.294;2023-11-22T03:10:49;102508.09;;;0.20;100.00
63901;BME280;50538;53.482;10.294;2023-11-22T03:20:51;102522.22;;;0.15;100.00
63901;BME280;50538;53.482;10.294;2023-11-22T03:30:54;102511.78;;;0.15;100.00
63901;BME280;50538;53.482;10.294;2023-11-22T03:40:54;102525.09;;;0.09;100.00
63901;BME280;50538;53.482;10.294;2023-11-22T03:50:55;102541.19;;;-0.04;100.00
63901;BME280;50538;53.482;10.294;2023-11-22T04:00:55;102541.28;;;-0.07;100.00
63901;BME280;50538;53.482;10.294;2023-11-22T04:10:55;102545.13;;;-0.17;100.00
63901;BME280;50538;53.482;10.294;2023-11-22T04:20:56;102569.78;;;-0.25;100.00
63901;BME280;50538;53.482;10.294;2023-11-22T04:30:58;102558.38;;;-0.23;100.00
63901;BME280;50538;53.482;10.294;2023-11-22T04:40:59;102553.16;;;-0.23;100.00
63901;BME280;50538;53.482;10.294;2023-11-22T04:50:59;102544.72;;;-0.31;100.00
63901;BME280;50538;53.482;10.294;2023-11-22T05:00:59;102530.19;;;-0.38;100.00
63901;BME280;50538;53.482;10.294;2023-11-22T05:11:01;102540.81;;;-0.44;100.00
63901;BME280;50538;53.482;10.294;2023-11-22T05:21:03;102550.63;;;-0.51;100.00
63901;BME280;50538;53.482;10.294;2023-11-22T05:31:04;102562.16;;;-0.58;100.00
63901;BME280;50538;53.482;10.294;2023-11-22T05:41:07;102593.63;;;-0.63;100.00
63901;BME280;50538;53.482;10.294;2023-11-22T05:51:08;102598.94;;;-0.66;100.00
63901;BME280;50538;53.482;10.294;2023-11-22T06:01:08;102593.72;;;-0.66;100.00
63901;BME280;50538;53.482;10.294;2023-11-22T06:11:09;102602.53;;;-0.70;100.00
63901;BME280;50538;53.482;10.294;2023-11-22T06:32:10;102577.53;;;-0.77;100.00
63901;BME280;50538;53.482;10.294;2023-11-22T06:42:11;102565.41;;;-0.78;100.00
63901;BME280;50538;53.482;10.294;2023-11-22T06:52:13;102576.66;;;-0.76;100.00
63901;BME280;50538;53.482;10.294;2023-11-22T07:02:14;102578.22;;;-0.70;100.00
63901;BME280;50538;53.482;10.294;2023-11-22T07:12:14;102557.16;;;-0.64;100.00
63901;BME280;50538;53.482;10.294;2023-11-22T07:22:18;102580.44;;;-0.58;100.00
63901;BME280;50538;53.482;10.294;2023-11-22T07:32:19;102589.78;;;-0.51;100.00
63901;BME280;50538;53.482;10.294;2023-11-22T07:42:23;102584.97;;;-0.38;100.00
63901;BME280;50538;53.482;10.294;2023-11-22T07:52:24;102613.03;;;-0.18;100.00
63901;BME280;50538;53.482;10.294;2023-11-22T08:02:29;102631.72;;;-0.04;100.00
63901;BME280;50538;53.482;10.294;2023-11-22T08:12:31;102632.28;;;0.06;100.00
63901;BME280;50538;53.482;10.294;2023-11-22T08:22:33;102621.38;;;0.18;100.00
63901;BME280;50538;53.482;10.294;2023-11-22T08:32:35;102611.88;;;0.40;100.00
63901;BME280;50538;53.482;10.294;2023-11-22T08:42:35;102611.28;;;0.57;100.00
63901;BME280;50538;53.482;10.294;2023-11-22T08:52:38;102610.66;;;0.74;100.00
63901;BME280;50538;53.482;10.294;2023-11-22T09:02:39;102617.88;;;0.90;100.00
63901;BME280;50538;53.482;10.294;2023-11-22T09:12:41;102633.03;;;1.04;100.00
63901;BME280;50538;53.482;10.294;2023-11-22T09:22:43;102599.38;;;1.18;100.00
63901;BME280;50538;53.482;10.294;2023-11-22T09:32:47;102599.66;;;1.32;100.00
63901;BME280;50538;53.482;10.294;2023-11-22T09:42:49;102634.78;;;1.49;100.00
63901;BME280;50538;53.482;10.294;2023-11-22T09:52:55;102642.16;;;1.61;100.00
63901;BME280;50538;53.482;10.294;2023-11-22T10:02:59;102663.34;;;1.77;100.00
63901;BME280;50538;53.482;10.294;2023-11-22T10:12:59;102649.41;;;1.96;100.00
63901;BME280;50538;53.482;10.294;2023-11-22T10:23:01;102624.22;;;2.14;100.00
63901;BME280;50538;53.482;10.294;2023-11-22T10:33:02;102596.44;;;2.30;100.00
63901;BME280;50538;53.482;10.294;2023-11-22T10:43:05;102575.91;;;2.40;100.00
63901;BME280;50538;53.482;10.294;2023-11-22T10:53:11;102560.59;;;2.50;100.00
63901;BME280;50538;53.482;10.294;2023-11-22T11:03:14;102540.97;;;2.58;100.00
63901;BME280;50538;53.482;10.294;2023-11-22T11:13:17;102513.41;;;2.68;100.00
63901;BME280;50538;53.482;10.294;2023-11-22T11:23:25;102498.16;;;2.77;100.00
63901;BME280;50538;53.482;10.294;2023-11-22T11:33:33;102437.38;;;2.86;100.00
63901;BME280;50538;53.482;10.294;2023-11-22T11:43:44;102413.56;;;2.90;100.00
63901;BME280;50538;53.482;10.294;2023-11-22T11:53:48;102398.50;;;2.94;100.00
63901;BME280;50538;53.482;10.294;2023-11-22T12:03:49;102363.59;;;3.09;100.00
63901;BME280;50538;53.482;10.294;2023-11-22T12:13:49;102376.03;;;3.23;100.00
63901;BME280;50538;53.482;10.294;2023-11-22T12:23:52;102396.66;;;3.30;100.00
63901;BME280;50538;53.482;10.294;2023-11-22T12:33:56;102378.81;;;3.37;100.00
63901;BME280;50538;53.482;10.294;2023-11-22T12:44:07;102368.22;;;3.39;100.00
63901;BME280;50538;53.482;10.294;2023-11-22T12:54:09;102343.75;;;3.38;98.86
63901;BME280;50538;53.482;10.294;2023-11-22T13:04:10;102341.19;;;3.37;98.23
63901;BME280;50538;53.482;10.294;2023-11-22T13:14:15;102340.50;;;3.33;96.93
63901;BME280;50538;53.482;10.294;2023-11-22T13:24:16;102360.75;;;3.31;96.04
63901;BME280;50538;53.482;10.294;2023-11-22T13:34:18;102361.91;;;3.25;94.42
63901;BME280;50538;53.482;10.294;2023-11-22T13:44:18;102361.84;;;3.27;96.51
63901;BME280;50538;53.482;10.294;2023-11-22T13:54:19;102401.22;;;3.27;96.64
63901;BME280;50538;53.482;10.294;2023-11-22T14:04:19;102386.31;;;3.27;99.06
63901;BME280;50538;53.482;10.294;2023-11-22T14:14:20;102344.47;;;3.24;98.93
63901;BME280;50538;53.482;10.294;2023-11-22T14:24:20;102348.09;;;3.22;98.95
63901;BME280;50538;53.482;10.294;2023-11-22T14:34:20;102338.91;;;3.13;98.22
63901;BME280;50538;53.482;10.294;2023-11-22T14:44:21;102323.41;;;3.09;97.05
63901;BME280;50538;53.482;10.294;2023-11-22T14:54:21;102286.13;;;3.02;97.78
63901;BME280;50538;53.482;10.294;2023-11-22T15:04:23;102276.97;;;2.93;98.50
63901;BME280;50538;53.482;10.294;2023-11-22T15:14:24;102250.97;;;2.89;97.49
63901;BME280;50538;53.482;10.294;2023-11-22T15:24:42;102197.28;;;2.79;99.43
63901;BME280;50538;53.482;10.294;2023-11-22T16:30:24;102148.47;;;2.26;100.00
63901;BME280;50538;53.482;10.294;2023-11-22T16:51:41;102086.97;;;2.16;100.00
63901;BME280;50538;53.482;10.294;2023-11-22T17:01:44;102062.84;;;2.09;100.00
63901;BME280;50538;53.482;10.294;2023-11-22T17:11:44;102063.94;;;2.05;100.00
63901;BME280;50538;53.482;10.294;2023-11-22T17:21:45;102062.41;;;2.01;100.00
63901;BME280;50538;53.482;10.294;2023-11-22T17:31:45;102030.13;;;2.00;100.00
63901;BME280;50538;53.482;10.294;2023-11-22T17:41:46;102038.13;;;1.97;100.00
63901;BME280;50538;53.482;10.294;2023-11-22T17:51:54;102023.41;;;1.95;100.00
63901;BME280;50538;53.482;10.294;2023-11-22T18:02:19;101980.59;;;1.96;100.00
63901;BME280;50538;53.482;10.294;2023-11-22T18:23:03;101927.38;;;1.95;100.00
63901;BME280;50538;53.482;10.294;2023-11-22T18:33:03;101903.72;;;1.97;100.00
63901;BME280;50538;53.482;10.294;2023-11-22T18:43:04;101864.34;;;1.98;100.00
63901;BME280;50538;53.482;10.294;2023-11-22T18:53:06;101846.84;;;1.99;100.00
63901;BME280;50538;53.482;10.294;2023-11-22T19:03:07;101817.63;;;2.07;99.42
63901;BME280;50538;53.482;10.294;2023-11-22T19:13:11;101819.81;;;2.14;98.84
63901;BME280;50538;53.482;10.294;2023-11-22T19:23:12;101796.75;;;2.21;98.67
63901;BME280;50538;53.482;10.294;2023-11-22T19:33:12;101763.19;;;2.27;98.02
63901;BME280;50538;53.482;10.294;2023-11-22T19:43:14;101739.16;;;2.35;99.11
63901;BME280;50538;53.482;10.294;2023-11-22T19:53:15;101709.22;;;2.39;100.00
63901;BME280;50538;53.482;10.294;2023-11-22T20:03:17;101677.47;;;2.44;100.00
63901;BME280;50538;53.482;10.294;2023-11-22T20:13:17;101672.97;;;2.46;100.00
63901;BME280;50538;53.482;10.294;2023-11-22T20:23:17;101662.31;;;2.49;100.00
63901;BME280;50538;53.482;10.294;2023-11-22T20:33:19;101652.88;;;2.60;100.00
63901;BME280;50538;53.482;10.294;2023-11-22T20:43:19;101622.16;;;2.77;100.00
63901;BME280;50538;53.482;10.294;2023-11-22T20:53:20;101606.34;;;2.92;99.74
63901;BME280;50538;53.482;10.294;2023-11-22T21:03:20;101547.63;;;3.08;100.00
63901;BME280;50538;53.482;10.294;2023-11-22T21:13:21;101539.06;;;3.18;100.00
63901;BME280;50538;53.482;10.294;2023-11-22T21:23:21;101518.25;;;3.29;100.00
63901;BME280;50538;53.482;10.294;2023-11-22T21:33:22;101520.06;;;3.42;100.00
63901;BME280;50538;53.482;10.294;2023-11-22T21:43:22;101488.69;;;3.53;100.00
63901;BME280;50538;53.482;10.294;2023-11-22T21:53:24;101480.06;;;3.63;100.00
63901;BME280;50538;53.482;10.294;2023-11-22T22:03:25;101463.38;;;3.77;100.00
63901;BME280;50538;53.482;10.294;2023-11-22T22:13:25;101464.97;;;3.92;100.00
63901;BME280;50538;53.482;10.294;2023-11-22T22:23:25;101458.78;;;4.06;100.00
63901;BME280;50538;53.482;10.294;2023-11-22T22:33:27;101412.00;;;4.11;100.00
63901;BME280;50538;53.482;10.294;2023-11-22T22:43:28;101402.13;;;4.15;100.00
63901;BME280;50538;53.482;10.294;2023-11-22T22:53:28;101388.25;;;4.13;100.00
63901;BME280;50538;53.482;10.294;2023-11-22T23:03:28;101376.03;;;4.12;100.00
63901;BME280;50538;53.482;10.294;2023-11-22T23:13:33;101359.34;;;4.13;100.00
63901;BME280;50538;53.482;10.294;2023-11-22T23:23:34;101345.00;;;4.17;100.00
63901;BME280;50538;53.482;10.294;2023-11-22T23:33:34;101325.53;;;4.19;100.00
63901;BME280;50538;53.482;10.294;2023-11-22T23:43:38;101291.03;;;4.24;100.00
63901;BME280;50538;53.482;10.294;2023-11-22T23:53:38;101283.31;;;4.33;100.00
